createdAt,value
2019-02-26T00:00:29.504Z,82.20
2019-02-26T00:03:00.411Z,82.60
2019-02-26T00:05:30.275Z,82.50
2019-02-26T00:08:00.049Z,82.40
2019-02-26T00:10:31.344Z,82.80
2019-02-26T00:12:59.464Z,83.30
2019-02-26T00:15:31.284Z,82.70
2019-02-26T00:17:58.394Z,82.20
2019-02-26T00:20:28.948Z,82.30
2019-02-26T00:22:58.064Z,82.70
2019-02-26T00:25:46.999Z,82.50
2019-02-26T00:28:19.768Z,82.70
2019-02-26T00:30:49.078Z,82.40
2019-02-26T00:33:22.166Z,82.70
2019-02-26T00:35:51.055Z,83.40
2019-02-26T00:38:19.961Z,83.10
2019-02-26T00:40:48.649Z,83.10
2019-02-26T00:43:23.338Z,84.20
2019-02-26T00:45:51.044Z,83.90
2019-02-26T00:48:20.947Z,84.00
2019-02-26T00:50:49.540Z,84.80
2019-02-26T00:53:21.180Z,85.10
2019-02-26T00:55:48.435Z,84.50
2019-02-26T00:58:18.260Z,84.60
2019-02-26T01:00:46.969Z,84.70
2019-02-26T01:03:16.032Z,85.20
2019-02-26T01:05:45.429Z,85.30
2019-02-26T01:08:33.452Z,85.50
2019-02-26T01:11:22.173Z,84.50
2019-02-26T01:13:52.842Z,84.80
2019-02-26T01:16:22.067Z,85.20
2019-02-26T01:18:51.118Z,85.20
2019-02-26T01:21:24.416Z,84.90
2019-02-26T01:23:51.329Z,85.30
2019-02-26T01:26:19.944Z,86.20
2019-02-26T01:28:51.172Z,85.90
2019-02-26T01:31:19.783Z,86.10
2019-02-26T01:33:50.884Z,85.80
2019-02-26T01:36:21.471Z,85.80
2019-02-26T01:38:51.025Z,85.60
2019-02-26T01:41:22.550Z,85.60
2019-02-26T01:43:50.992Z,85.10
2019-02-26T01:46:19.618Z,84.50
2019-02-26T01:48:48.167Z,85.00
2019-02-26T01:51:17.568Z,84.80
2019-02-26T01:53:49.079Z,84.80
2019-02-26T01:56:17.714Z,85.60
2019-02-26T01:58:56.348Z,87.40
2019-02-26T02:01:19.254Z,87.60
2019-02-26T02:03:50.866Z,88.00
2019-02-26T02:06:19.087Z,87.60
2019-02-26T02:08:48.185Z,87.40
2019-02-26T02:11:17.988Z,86.80
2019-02-26T02:13:46.592Z,86.20
2019-02-26T02:16:15.257Z,86.00
2019-02-26T02:18:46.100Z,86.00
2019-02-26T02:21:14.203Z,85.60
2019-02-26T02:23:44.194Z,85.80
2019-02-26T02:26:13.906Z,85.30
2019-02-26T02:28:43.601Z,86.10
2019-02-26T02:31:12.199Z,86.20
2019-02-26T02:33:40.815Z,86.00
2019-02-26T02:36:11.655Z,85.80
2019-02-26T02:38:39.730Z,86.10
2019-02-26T02:41:08.329Z,86.40
2019-02-26T02:43:36.966Z,86.10
2019-02-26T02:46:05.556Z,86.00
2019-02-26T02:48:34.140Z,86.30
2019-02-26T02:51:05.348Z,86.20
2019-02-26T02:53:33.165Z,86.40
2019-02-26T02:56:21.076Z,85.90
2019-02-26T02:58:51.615Z,86.40
2019-02-26T03:01:22.433Z,86.40
2019-02-26T03:04:09.655Z,86.40
2019-02-26T03:06:38.753Z,86.50
2019-02-26T03:09:17.153Z,86.70
2019-02-26T03:11:46.473Z,86.90
2019-02-26T03:14:16.540Z,87.30
2019-02-26T03:16:47.951Z,86.90
2019-02-26T03:19:17.056Z,86.40
2019-02-26T03:21:47.196Z,86.30
2019-02-26T03:24:17.283Z,86.40
2019-02-26T03:27:05.192Z,85.70
2019-02-26T03:29:33.805Z,86.00
2019-02-26T03:32:02.464Z,86.40
2019-02-26T03:34:31.057Z,86.80
2019-02-26T03:37:00.944Z,87.20
2019-02-26T03:39:29.936Z,86.90
2019-02-26T03:41:58.591Z,87.40
2019-02-26T03:44:29.573Z,88.10
2019-02-26T03:46:57.575Z,88.10
2019-02-26T03:49:27.075Z,87.60
2019-02-26T03:51:59.228Z,88.00
2019-02-26T03:54:26.188Z,87.90
2019-02-26T03:56:54.812Z,87.80
2019-02-26T03:59:23.405Z,87.60
2019-02-26T04:01:51.964Z,87.60
2019-02-26T04:04:22.622Z,88.20
2019-02-26T04:06:50.872Z,88.20
2019-02-26T04:09:21.853Z,87.90
2019-02-26T04:11:51.085Z,88.10
2019-02-26T04:14:20.702Z,88.10
2019-02-26T04:16:50.389Z,87.40
2019-02-26T04:19:18.980Z,87.00
2019-02-26T04:22:26.339Z,87.50
2019-02-26T04:25:01.037Z,87.40
2019-02-26T04:27:44.071Z,86.80
2019-02-26T04:30:39.722Z,87.20
2019-02-26T04:33:32.715Z,87.20
2019-02-26T04:36:42.754Z,87.10
2019-02-26T04:40:05.363Z,87.00
2019-02-26T04:42:52.519Z,87.20
2019-02-26T04:46:04.650Z,86.60
2019-02-26T04:48:51.678Z,86.80
2019-02-26T04:51:20.257Z,86.40
2019-02-26T04:53:51.081Z,86.10
2019-02-26T04:56:19.165Z,86.30
2019-02-26T04:58:47.860Z,86.70
2019-02-26T05:01:35.863Z,87.00
2019-02-26T05:04:04.520Z,87.20
2019-02-26T05:06:33.499Z,86.50
2019-02-26T05:09:02.768Z,86.40
2019-02-26T05:11:37.212Z,86.90
2019-02-26T05:14:23.663Z,86.70
2019-02-26T05:16:52.340Z,86.90
2019-02-26T05:19:21.658Z,86.90
2019-02-26T05:21:53.312Z,87.00
2019-02-26T05:24:23.794Z,87.40
2019-02-26T05:26:51.878Z,87.60
2019-02-26T05:29:20.463Z,86.80
2019-02-26T05:31:49.073Z,86.90
2019-02-26T05:34:20.147Z,87.30
2019-02-26T05:36:47.981Z,87.10
2019-02-26T05:39:21.069Z,87.50
2019-02-26T05:41:52.264Z,87.20
2019-02-26T05:44:20.291Z,87.40
2019-02-26T05:46:50.787Z,87.40
2019-02-26T05:49:19.587Z,87.20
2019-02-26T05:51:48.284Z,87.10
2019-02-26T05:54:21.629Z,87.00
2019-02-26T05:56:49.987Z,87.20
2019-02-26T05:59:21.607Z,87.20
2019-02-26T06:01:52.556Z,87.10
2019-02-26T06:04:20.601Z,87.50
2019-02-26T06:06:51.064Z,88.00
2019-02-26T06:09:22.473Z,87.70
2019-02-26T06:11:50.435Z,88.10
2019-02-26T06:14:19.019Z,88.30
2019-02-26T06:16:48.721Z,88.00
2019-02-26T06:19:18.372Z,88.50
2019-02-26T06:21:49.168Z,88.70
2019-02-26T06:24:20.278Z,88.50
2019-02-26T06:26:47.830Z,88.90
2019-02-26T06:29:20.038Z,88.80
2019-02-26T06:31:47.688Z,88.50
2019-02-26T06:34:21.217Z,88.50
2019-02-26T06:36:48.937Z,88.10
2019-02-26T06:39:20.231Z,88.70
2019-02-26T06:42:08.099Z,87.80
2019-02-26T06:44:38.925Z,87.70
2019-02-26T06:47:09.121Z,87.70
2019-02-26T06:49:37.789Z,87.30
2019-02-26T06:52:08.243Z,87.20
2019-02-26T06:54:36.692Z,87.20
2019-02-26T06:57:05.255Z,87.00
2019-02-26T06:59:34.966Z,86.80
2019-02-26T07:02:04.256Z,86.80
2019-02-26T07:04:32.905Z,86.60
2019-02-26T07:07:02.022Z,86.60
2019-02-26T07:09:32.426Z,86.40
2019-02-26T07:12:02.903Z,86.10
2019-02-26T07:14:32.690Z,86.00
2019-02-26T07:17:01.856Z,85.90
2019-02-26T07:19:32.716Z,85.50
2019-02-26T07:22:00.839Z,85.30
2019-02-26T07:24:29.456Z,85.00
2019-02-26T07:26:58.091Z,84.70
2019-02-26T07:29:30.727Z,84.40
2019-02-26T07:31:58.899Z,84.10
2019-02-26T07:34:49.282Z,83.80
2019-02-26T07:37:17.354Z,83.30
2019-02-26T07:39:47.313Z,82.70
2019-02-26T07:42:18.950Z,82.20
2019-02-26T07:45:14.681Z,81.40
2019-02-26T07:47:37.497Z,81.00
2019-02-26T07:50:09.193Z,80.10
2019-02-26T07:52:37.303Z,80.80
2019-02-26T07:55:08.490Z,79.50
2019-02-26T07:57:36.269Z,78.50
2019-02-26T08:00:06.449Z,77.70
2019-02-26T08:02:36.805Z,76.80
2019-02-26T08:05:05.478Z,75.80
2019-02-26T08:07:34.089Z,74.70
2019-02-26T08:10:06.100Z,74.20
2019-02-26T08:12:35.699Z,74.00
2019-02-26T08:15:07.813Z,73.50
2019-02-26T08:17:35.725Z,73.70
2019-02-26T08:20:07.353Z,72.20
2019-02-26T08:22:36.298Z,73.10
2019-02-26T08:25:05.306Z,70.80
2019-02-26T08:27:35.648Z,70.80
2019-02-26T08:30:06.813Z,70.00
2019-02-26T08:32:35.641Z,71.00
2019-02-26T08:35:05.026Z,70.20
2019-02-26T08:37:33.680Z,72.20
2019-02-26T08:40:05.333Z,69.50
2019-02-26T08:42:33.975Z,68.60
2019-02-26T08:45:02.648Z,68.10
2019-02-26T08:47:31.253Z,68.20
2019-02-26T08:50:01.782Z,68.10
2019-02-26T08:52:30.193Z,67.50
2019-02-26T08:54:59.080Z,68.20
2019-02-26T08:57:27.719Z,68.00
2019-02-26T08:59:56.573Z,67.40
2019-02-26T09:02:25.181Z,67.70
2019-02-26T09:04:53.781Z,67.70
2019-02-26T09:07:23.718Z,67.50
2019-02-26T09:09:54.900Z,66.90
2019-02-26T09:12:24.724Z,66.90
2019-02-26T09:15:05.826Z,68.20
2019-02-26T09:17:35.349Z,65.70
2019-02-26T09:20:09.600Z,65.00
2019-02-26T09:22:37.315Z,65.60
2019-02-26T09:25:06.227Z,64.90
2019-02-26T09:27:42.522Z,65.40
2019-02-26T09:30:10.485Z,64.10
2019-02-26T09:32:39.714Z,64.40
2019-02-26T09:35:09.229Z,62.40
2019-02-26T09:37:37.921Z,63.60
2019-02-26T09:40:08.242Z,62.90
2019-02-26T09:42:36.832Z,62.30
2019-02-26T09:45:06.549Z,63.40
2019-02-26T09:47:35.165Z,64.60
2019-02-26T09:50:10.038Z,62.50
2019-02-26T09:52:38.547Z,61.30
2019-02-26T09:55:10.581Z,61.90
2019-02-26T09:57:38.821Z,62.10
2019-02-26T10:00:11.407Z,60.90
2019-02-26T10:02:40.753Z,61.40
2019-02-26T10:05:11.768Z,61.80
2019-02-26T10:07:40.774Z,63.00
2019-02-26T10:10:13.998Z,61.00
2019-02-26T10:12:42.094Z,61.40
2019-02-26T10:15:11.530Z,62.90
2019-02-26T10:17:42.693Z,64.10
2019-02-26T10:20:12.681Z,64.70
2019-02-26T10:22:41.270Z,65.50
2019-02-26T10:25:10.373Z,65.90
2019-02-26T10:27:41.248Z,65.80
2019-02-26T10:30:14.383Z,63.60
2019-02-26T10:32:44.088Z,62.10
2019-02-26T10:35:19.483Z,62.70
2019-02-26T10:37:50.223Z,62.20
2019-02-26T10:40:19.716Z,62.60
2019-02-26T10:42:48.339Z,63.20
2019-02-26T10:45:17.697Z,62.90
2019-02-26T10:47:48.801Z,63.00
2019-02-26T10:50:19.350Z,63.20
2019-02-26T10:52:48.297Z,61.80
2019-02-26T10:55:21.861Z,62.50
2019-02-26T10:57:49.370Z,63.10
2019-02-26T11:00:25.278Z,59.50
2019-02-26T11:02:54.104Z,60.00
2019-02-26T11:05:26.293Z,59.60
2019-02-26T11:07:55.807Z,61.80
2019-02-26T11:10:25.212Z,59.00
2019-02-26T11:12:56.267Z,61.40
2019-02-26T11:15:26.696Z,61.20
2019-02-26T11:17:55.848Z,61.90
2019-02-26T11:20:27.717Z,60.40
2019-02-26T11:23:16.295Z,59.70
2019-02-26T11:25:44.787Z,59.60
2019-02-26T11:28:13.419Z,59.10
2019-02-26T11:30:44.116Z,58.90
2019-02-26T11:33:13.669Z,58.00
2019-02-26T11:35:44.346Z,59.20
2019-02-26T11:38:14.930Z,59.50
2019-02-26T11:40:43.438Z,59.40
2019-02-26T11:43:14.992Z,58.60
2019-02-26T11:45:44.544Z,57.50
2019-02-26T11:48:13.219Z,56.50
2019-02-26T11:50:44.670Z,57.10
2019-02-26T11:53:12.245Z,56.10
2019-02-26T11:55:41.324Z,57.00
2019-02-26T11:58:19.924Z,56.20
2019-02-26T12:00:57.369Z,56.50
2019-02-26T12:03:28.060Z,58.00
2019-02-26T12:05:58.476Z,56.50
2019-02-26T12:08:32.827Z,56.30
2019-02-26T12:11:04.063Z,55.60
2019-02-26T12:13:31.936Z,55.70
2019-02-26T12:16:13.378Z,55.20
2019-02-26T12:18:44.403Z,55.90
2019-02-26T12:21:12.871Z,57.40
2019-02-26T12:23:43.966Z,54.80
2019-02-26T12:26:12.100Z,55.00
2019-02-26T12:29:01.999Z,56.10
2019-02-26T12:31:31.792Z,55.00
2019-02-26T12:34:00.629Z,54.90
2019-02-26T12:36:29.848Z,55.40
2019-02-26T12:39:02.286Z,55.50
2019-02-26T12:41:32.438Z,55.20
2019-02-26T12:44:02.060Z,55.50
2019-02-26T12:46:31.915Z,55.70
2019-02-26T12:49:02.967Z,53.30
2019-02-26T12:51:32.579Z,53.50
2019-02-26T12:54:03.618Z,55.10
2019-02-26T12:56:54.758Z,55.20
2019-02-26T12:59:22.689Z,54.40
2019-02-26T13:01:51.916Z,54.90
2019-02-26T13:04:24.809Z,54.10
2019-02-26T13:06:51.999Z,54.20
2019-02-26T13:09:20.749Z,53.30
2019-02-26T13:12:01.111Z,54.20
2019-02-26T13:14:19.710Z,54.10
2019-02-26T13:16:48.828Z,53.70
2019-02-26T13:19:22.066Z,53.20
2019-02-26T13:21:51.770Z,54.30
2019-02-26T13:24:21.403Z,54.30
2019-02-26T13:26:54.350Z,53.50
2019-02-26T13:29:21.181Z,53.40
2019-02-26T13:31:56.187Z,54.10
2019-02-26T13:34:20.172Z,52.30
2019-02-26T13:36:52.897Z,50.70
2019-02-26T13:39:26.112Z,52.40
2019-02-26T13:41:54.386Z,51.00
2019-02-26T13:44:19.801Z,50.70
2019-02-26T13:46:48.385Z,48.90
2019-02-26T13:49:17.211Z,48.60
2019-02-26T13:51:45.792Z,50.40
2019-02-26T13:54:14.416Z,50.10
2019-02-26T13:56:43.046Z,50.70
2019-02-26T13:59:11.714Z,50.10
2019-02-26T14:01:40.468Z,49.90
2019-02-26T14:04:28.423Z,49.10
2019-02-26T14:06:57.032Z,50.40
2019-02-26T14:09:25.771Z,50.10
2019-02-26T14:11:54.417Z,49.20
2019-02-26T14:14:23.058Z,49.00
2019-02-26T14:16:51.687Z,48.70
2019-02-26T14:19:20.291Z,49.10
2019-02-26T14:21:48.921Z,49.40
2019-02-26T14:24:17.520Z,49.40
2019-02-26T14:26:46.139Z,48.00
2019-02-26T14:29:14.817Z,49.00
2019-02-26T14:31:43.436Z,49.10
2019-02-26T14:34:12.065Z,49.90
2019-02-26T14:36:40.719Z,49.10
2019-02-26T14:39:09.659Z,50.20
2019-02-26T14:41:38.328Z,50.30
2019-02-26T14:44:06.930Z,50.50
2019-02-26T14:46:35.504Z,49.60
2019-02-26T14:49:04.108Z,49.20
2019-02-26T14:51:33.091Z,49.30
2019-02-26T14:54:01.701Z,50.00
2019-02-26T14:56:49.814Z,49.70
2019-02-26T14:59:18.403Z,49.70
2019-02-26T15:01:48.732Z,50.20
2019-02-26T15:04:17.848Z,51.00
2019-02-26T15:06:46.435Z,50.10
2019-02-26T15:09:16.696Z,50.70
2019-02-26T15:12:04.893Z,49.60
2019-02-26T15:14:33.503Z,49.80
2019-02-26T15:17:02.083Z,49.20
2019-02-26T15:19:30.679Z,49.10
2019-02-26T15:21:59.279Z,49.60
2019-02-26T15:24:27.895Z,49.70
2019-02-26T15:26:56.569Z,49.60
2019-02-26T15:29:25.161Z,51.70
2019-02-26T15:31:53.791Z,53.50
2019-02-26T15:34:22.767Z,53.50
2019-02-26T15:36:51.382Z,53.60
2019-02-26T15:39:20.004Z,54.20
2019-02-26T15:41:50.534Z,54.50
2019-02-26T15:44:38.364Z,54.50
2019-02-26T15:47:09.145Z,54.20
2019-02-26T15:49:37.865Z,54.00
2019-02-26T15:52:06.963Z,54.40
2019-02-26T15:54:35.872Z,54.40
2019-02-26T15:57:05.115Z,54.30
2019-02-26T15:59:53.053Z,54.40
2019-02-26T16:02:21.746Z,54.50
2019-02-26T16:04:50.454Z,54.90
2019-02-26T16:07:19.082Z,55.80
2019-02-26T16:09:47.684Z,55.60
2019-02-26T16:12:16.531Z,55.80
2019-02-26T16:14:45.190Z,56.20
2019-02-26T16:17:13.825Z,56.20
2019-02-26T16:19:43.694Z,56.10
2019-02-26T16:22:12.367Z,56.10
2019-02-26T16:24:40.969Z,56.10
2019-02-26T16:27:09.573Z,56.40
2019-02-26T16:29:57.592Z,56.70
2019-02-26T16:32:26.217Z,57.30
2019-02-26T16:34:54.857Z,57.80
2019-02-26T16:37:23.727Z,57.90
2019-02-26T16:39:52.349Z,58.00
2019-02-26T16:42:21.012Z,58.00
2019-02-26T16:44:49.601Z,58.10
2019-02-26T16:47:18.205Z,58.20
2019-02-26T16:49:46.788Z,58.60
2019-02-26T16:52:15.512Z,59.00
2019-02-26T16:54:44.175Z,59.00
2019-02-26T16:57:12.776Z,59.20
2019-02-26T16:59:41.514Z,59.30
2019-02-26T17:02:10.224Z,59.60
2019-02-26T17:04:40.756Z,59.70
2019-02-26T17:07:09.232Z,59.90
2019-02-26T17:09:37.920Z,59.90
2019-02-26T17:12:06.541Z,60.40
2019-02-26T17:14:35.153Z,61.00
2019-02-26T17:17:06.694Z,61.60
2019-02-26T17:19:35.321Z,62.20
2019-02-26T17:22:04.579Z,62.80
2019-02-26T17:24:33.929Z,63.30
2019-02-26T17:27:05.683Z,63.90
2019-02-26T17:29:35.135Z,64.50
2019-02-26T17:32:04.889Z,65.50
2019-02-26T17:34:33.742Z,65.80
2019-02-26T17:37:02.470Z,66.00
2019-02-26T17:39:31.173Z,66.80
2019-02-26T17:41:59.766Z,66.70
2019-02-26T17:44:28.369Z,67.50
2019-02-26T17:47:16.431Z,68.80
2019-02-26T17:49:57.388Z,70.30
2019-02-26T17:52:26.015Z,70.80
2019-02-26T17:54:54.654Z,71.10
2019-02-26T17:57:23.334Z,70.70
2019-02-26T17:59:52.860Z,70.10
2019-02-26T18:02:21.481Z,70.10
2019-02-26T18:04:50.092Z,69.70
2019-02-26T18:07:18.732Z,70.40
2019-02-26T18:09:47.374Z,70.40
2019-02-26T18:12:16.061Z,70.70
2019-02-26T18:14:44.671Z,70.40
2019-02-26T18:17:13.293Z,70.30
2019-02-26T18:19:41.900Z,70.80
2019-02-26T18:22:10.560Z,71.40
2019-02-26T18:24:39.206Z,72.10
2019-02-26T18:27:08.184Z,72.30
2019-02-26T18:29:36.800Z,72.70
2019-02-26T18:32:24.717Z,73.30
2019-02-26T18:35:05.490Z,73.60
2019-02-26T18:37:34.108Z,73.50
2019-02-26T18:40:02.704Z,73.80
2019-02-26T18:42:31.280Z,73.80
2019-02-26T18:44:59.863Z,73.80
2019-02-26T18:47:28.728Z,74.40
2019-02-26T18:49:57.397Z,75.10
2019-02-26T18:52:26.010Z,74.80
2019-02-26T18:54:55.095Z,75.20
2019-02-26T18:57:24.892Z,75.40
2019-02-26T18:59:54.157Z,75.10
2019-02-26T19:02:22.889Z,75.70
2019-02-26T19:04:51.481Z,76.30
2019-02-26T19:07:20.074Z,76.40
2019-02-26T19:09:48.663Z,76.70
2019-02-26T19:12:18.563Z,77.20
2019-02-26T19:14:47.288Z,77.60
2019-02-26T19:17:15.929Z,77.80
2019-02-26T19:19:44.555Z,77.40
2019-02-26T19:22:15.051Z,77.00
2019-02-26T19:24:43.656Z,77.70
2019-02-26T19:27:12.804Z,77.70
2019-02-26T19:29:41.461Z,77.40
2019-02-26T19:32:10.048Z,78.70
2019-02-26T19:34:38.678Z,79.00
2019-02-26T19:37:07.973Z,78.60
2019-02-26T19:39:36.662Z,79.50
2019-02-26T19:42:05.434Z,79.50
2019-02-26T19:44:35.870Z,79.10
2019-02-26T19:47:05.056Z,79.10
2019-02-26T19:49:39.383Z,79.50
2019-02-26T19:52:06.253Z,80.50
2019-02-26T19:54:34.864Z,79.90
2019-02-26T19:57:05.117Z,80.10
2019-02-26T19:59:36.906Z,80.10
2019-02-26T20:02:05.599Z,80.70
2019-02-26T20:04:38.401Z,82.00
2019-02-26T20:07:06.063Z,81.70
2019-02-26T20:09:38.859Z,82.00
2019-02-26T20:12:10.038Z,82.40
2019-02-26T20:14:38.981Z,83.20
2019-02-26T20:17:14.722Z,83.00
2019-02-26T20:19:57.591Z,83.20
2019-02-26T20:22:30.097Z,83.30
2019-02-26T20:24:56.755Z,83.30
2019-02-26T20:27:44.788Z,83.50
2019-02-26T20:30:25.926Z,82.70
2019-02-26T20:32:54.567Z,82.50
2019-02-26T20:35:23.212Z,82.90
2019-02-26T20:37:51.838Z,82.90
2019-02-26T20:40:20.505Z,83.10
2019-02-26T20:42:49.129Z,83.30
2019-02-26T20:45:18.849Z,83.20
2019-02-26T20:47:48.216Z,83.20
2019-02-26T20:50:21.774Z,83.00
2019-02-26T20:52:50.835Z,83.00
2019-02-26T20:55:19.985Z,82.60
2019-02-26T20:57:48.817Z,82.50
2019-02-26T21:00:18.619Z,82.10
2019-02-26T21:02:47.350Z,81.90
2019-02-26T21:05:16.129Z,81.60
2019-02-26T21:07:44.739Z,81.60
2019-02-26T21:10:15.265Z,81.50
2019-02-26T21:12:44.271Z,81.40
2019-02-26T21:15:14.816Z,81.20
2019-02-26T21:17:43.524Z,81.10
2019-02-26T21:20:12.209Z,80.90
2019-02-26T21:22:41.157Z,80.70
2019-02-26T21:25:29.110Z,80.60
2019-02-26T21:28:00.583Z,80.30
2019-02-26T21:30:28.164Z,80.20
2019-02-26T21:32:58.188Z,80.20
2019-02-26T21:35:27.463Z,79.70
2019-02-26T21:37:56.061Z,79.60
2019-02-26T21:40:24.701Z,79.20
2019-02-26T21:42:53.356Z,79.00
2019-02-26T21:45:22.071Z,78.50
2019-02-26T21:47:50.724Z,78.10
2019-02-26T21:50:21.942Z,78.00
2019-02-26T21:53:05.034Z,77.60
2019-02-26T21:55:20.009Z,77.50
2019-02-26T21:57:48.638Z,77.40
2019-02-26T22:00:20.492Z,77.30
2019-02-26T22:02:51.972Z,77.30
2019-02-26T22:05:19.617Z,77.20
2019-02-26T22:07:52.127Z,77.30
2019-02-26T22:10:18.539Z,77.10
2019-02-26T22:13:06.463Z,77.30
2019-02-26T22:15:36.273Z,77.20
2019-02-26T22:18:04.968Z,76.90
2019-02-26T22:20:36.457Z,76.60
2019-02-26T22:23:04.384Z,76.40
2019-02-26T22:25:33.032Z,76.30
2019-02-26T22:28:02.149Z,76.20
2019-02-26T22:30:30.761Z,76.40
2019-02-26T22:32:59.370Z,76.20
2019-02-26T22:35:35.138Z,76.10
2019-02-26T22:38:06.491Z,76.30
2019-02-26T22:40:35.080Z,76.40
2019-02-26T22:43:05.078Z,76.40
2019-02-26T22:45:33.696Z,76.70
2019-02-26T22:48:02.407Z,76.90
2019-02-26T22:50:50.328Z,76.80
2019-02-26T22:53:18.913Z,77.10
2019-02-26T22:55:49.629Z,76.90
2019-02-26T22:58:17.832Z,77.40
2019-02-26T23:01:16.433Z,77.40
2019-02-26T23:03:45.909Z,77.70
2019-02-26T23:09:05.436Z,77.80
2019-02-26T23:11:34.061Z,78.20
2019-02-26T23:14:04.916Z,78.40
2019-02-26T23:16:33.897Z,78.60
2019-02-26T23:19:03.816Z,79.10
2019-02-26T23:21:33.200Z,80.10
2019-02-26T23:24:02.899Z,79.80
2019-02-26T23:26:31.810Z,80.50
2019-02-26T23:29:00.417Z,81.30
2019-02-26T23:31:32.698Z,81.70
2019-02-26T23:33:59.364Z,81.50
2019-02-26T23:36:28.581Z,81.30
2019-02-26T23:39:16.679Z,81.40
2019-02-26T23:41:45.290Z,82.10
2019-02-26T23:44:17.820Z,83.40
2019-02-26T23:46:45.129Z,84.10
2019-02-26T23:49:14.230Z,84.90
2019-02-26T23:51:43.609Z,85.40
2019-02-26T23:54:12.501Z,85.20
2019-02-26T23:57:00.437Z,84.70
2019-02-26T23:59:29.039Z,84.70
